Historique des mesures à Cassis (13260), France
Quotidien Résumé Juin 22, 2021 Unités:  Métrique    US   Métrique/US
Quotidien Hebdomadaire Mensuel Annuel
  Maximum: Minimum: Moyenne:
Température: 30.4 °C 21.2 °C 25.6 °C
Point de rosée: 21.5 °C 17.3 °C 19.5 °C
Humidité: 87% 55% 70%
Vitesse du vent: 29.2km/h 0km/h 11.7km/h
Rafales: 50.4km/h - -
Vent- - WNW
Pression: 1016.3 hPa 1012.8 hPa -
Précipitations: 0.0 mm    
Historical Graphs
 
 
Mesures pour : Juin 22, 2021
Heure Temperature Point de rosée Pression Vent Vitesse du vent Rafales Humidité Pluie (par heure)
00:11 22.9 °C 19.9 °C 1016.3 hPa WNW 3.6 km/h 8.6 km/h 83% 0.0 mm
01:11 22.5 °C 19.7 °C 1016.0 hPa WNW 7.6 km/h 13 km/h 84% 0.0 mm
02:11 22 °C 19.2 °C 1015.8 hPa WNW 10.8 km/h 10.8 km/h 84% 0.0 mm
03:11 21.9 °C 19.3 °C 1015.4 hPa NW 2.2 km/h 2.2 km/h 85% 0.0 mm
04:11 21.6 °C 19.3 °C 1015.2 hPa WNW 16.9 km/h 16.9 km/h 87% 0.0 mm
05:11 21.5 °C 19 °C 1014.9 hPa WNW 2.2 km/h 2.2 km/h 86% 0.0 mm
06:11 21.2 °C 18.7 °C 1014.8 hPa Calm   4.3 km/h 86% 0.0 mm
07:11 21.4 °C 18.9 °C 1015.0 hPa Calm   4.3 km/h 86% 0.0 mm
08:11 24.4 °C 20.8 °C 1014.9 hPa Calm   4.7 km/h 80% 0.0 mm
09:11 25 °C 20 °C 1015.3 hPa Calm   5.8 km/h 74% 0.0 mm
10:11 25.4 °C 19.8 °C 1015.1 hPa WNW 14 km/h 24.1 km/h 71% 0.0 mm
11:11 28.1 °C 21.1 °C 1015.3 hPa WNW 12.6 km/h 13.3 km/h 66% 0.0 mm
12:11 29.1 °C 21.3 °C 1014.8 hPa WSW 16.6 km/h 23.8 km/h 63% 0.0 mm
13:11 30.1 °C 21.5 °C 1014.4 hPa West 22 km/h 22 km/h 60% 0.0 mm
14:11 30.4 °C 20.9 °C 1014.0 hPa West 23.8 km/h 31.7 km/h 57% 0.0 mm
15:11 30.1 °C 20.9 °C 1013.9 hPa WNW 5 km/h 30.6 km/h 58% 0.0 mm
16:11 28.8 °C 20.8 °C 1013.6 hPa WSW 27 km/h 34.9 km/h 62% 0.0 mm
17:11 28.9 °C 20.7 °C 1013.2 hPa WNW 15.5 km/h 33.1 km/h 61% 0.0 mm
18:11 27.9 °C 18 °C 1013.0 hPa West 29.2 km/h 50.4 km/h 55% 0.0 mm
19:11 27.4 °C 17.5 °C 1012.8 hPa WNW 18.4 km/h 39.2 km/h 55% 0.0 mm
20:11 26.9 °C 17.4 °C 1012.8 hPa WNW 16.9 km/h 25.9 km/h 56% 0.0 mm
21:11 26.1 °C 17.8 °C 1013.3 hPa NW 26.6 km/h 29.2 km/h 60% 0.0 mm
22:11 25.4 °C 17.6 °C 1013.4 hPa West 1.1 km/h 7.2 km/h 62% 0.0 mm
23:11 25.9 °C 17.3 °C 1012.8 hPa WNW 9.7 km/h 23 km/h 59% 0.0 mm
Observations météo à CASSIS
WU-History script by Weather Underground - 2 mb